sensor_id;sensor_type;location;lat;lon;timestamp;pressure;altitude;pressure_sealevel;temperature;humidity
79131;BME280;70394;45.194;9.142;2023-06-04T00:01:02;100658.72;;;21.87;65.04
79131;BME280;70394;45.194;9.142;2023-06-04T00:03:27;100657.75;;;21.88;64.48
79131;BME280;70394;45.194;9.142;2023-06-04T00:05:53;100652.53;;;21.86;64.20
79131;BME280;70394;45.194;9.142;2023-06-04T00:08:18;100656.53;;;21.92;64.13
79131;BME280;70394;45.194;9.142;2023-06-04T00:10:43;100659.94;;;21.94;64.15
79131;BME280;70394;45.194;9.142;2023-06-04T00:13:09;100653.00;;;21.92;64.12
79131;BME280;70394;45.194;9.142;2023-06-04T00:15:34;100650.19;;;21.93;64.01
79131;BME280;70394;45.194;9.142;2023-06-04T00:18:00;100642.13;;;21.93;64.27
79131;BME280;70394;45.194;9.142;2023-06-04T00:20:25;100640.69;;;21.89;64.28
79131;BME280;70394;45.194;9.142;2023-06-04T00:22:51;100634.19;;;21.92;63.94
79131;BME280;70394;45.194;9.142;2023-06-04T00:25:16;100642.13;;;21.93;64.58
79131;BME280;70394;45.194;9.142;2023-06-04T00:27:41;100640.19;;;21.95;64.04
79131;BME280;70394;45.194;9.142;2023-06-04T00:30:07;100639.31;;;21.95;63.79
79131;BME280;70394;45.194;9.142;2023-06-04T00:32:33;100647.63;;;21.92;63.44
79131;BME280;70394;45.194;9.142;2023-06-04T00:34:58;100646.91;;;21.90;63.62
79131;BME280;70394;45.194;9.142;2023-06-04T00:37:24;100632.38;;;21.92;62.52
79131;BME280;70394;45.194;9.142;2023-06-04T00:39:50;100630.44;;;21.83;63.27
79131;BME280;70394;45.194;9.142;2023-06-04T00:42:16;100639.56;;;21.92;63.59
79131;BME280;70394;45.194;9.142;2023-06-04T00:44:41;100630.91;;;21.88;63.69
79131;BME280;70394;45.194;9.142;2023-06-04T00:47:13;100640.09;;;21.85;63.54
79131;BME280;70394;45.194;9.142;2023-06-04T00:49:39;100641.78;;;21.86;63.47
79131;BME280;70394;45.194;9.142;2023-06-04T00:52:05;100647.53;;;21.82;63.05
79131;BME280;70394;45.194;9.142;2023-06-04T00:54:31;100645.38;;;21.76;63.31
79131;BME280;70394;45.194;9.142;2023-06-04T00:56:59;100632.53;;;21.79;63.11
79131;BME280;70394;45.194;9.142;2023-06-04T00:59:24;100631.78;;;21.77;62.88
79131;BME280;70394;45.194;9.142;2023-06-04T01:04:35;100647.56;;;21.70;62.65
79131;BME280;70394;45.194;9.142;2023-06-04T01:07:03;100639.38;;;21.72;63.29
79131;BME280;70394;45.194;9.142;2023-06-04T01:09:30;100641.34;;;21.70;62.79
79131;BME280;70394;45.194;9.142;2023-06-04T01:11:56;100640.47;;;21.69;63.36
79131;BME280;70394;45.194;9.142;2023-06-04T01:14:23;100642.78;;;21.63;63.07
79131;BME280;70394;45.194;9.142;2023-06-04T01:16:53;100637.41;;;21.63;62.92
79131;BME280;70394;45.194;9.142;2023-06-04T01:24:59;100647.16;;;21.64;62.75
79131;BME280;70394;45.194;9.142;2023-06-04T01:27:28;100635.47;;;21.65;62.53
79131;BME280;70394;45.194;9.142;2023-06-04T01:29:55;100639.25;;;21.62;63.04
79131;BME280;70394;45.194;9.142;2023-06-04T01:32:23;100640.34;;;21.60;62.42
79131;BME280;70394;45.194;9.142;2023-06-04T01:34:48;100637.91;;;21.56;62.65
79131;BME280;70394;45.194;9.142;2023-06-04T01:37:14;100637.19;;;21.54;62.81
79131;BME280;70394;45.194;9.142;2023-06-04T01:39:41;100638.66;;;21.47;63.02
79131;BME280;70394;45.194;9.142;2023-06-04T01:42:07;100631.97;;;21.41;63.03
79131;BME280;70394;45.194;9.142;2023-06-04T01:44:33;100636.22;;;21.44;63.45
79131;BME280;70394;45.194;9.142;2023-06-04T01:46:58;100629.41;;;21.40;63.45
79131;BME280;70394;45.194;9.142;2023-06-04T01:49:23;100632.72;;;21.43;63.59
79131;BME280;70394;45.194;9.142;2023-06-04T01:51:49;100613.56;;;21.37;63.77
79131;BME280;70394;45.194;9.142;2023-06-04T01:54:14;100619.91;;;21.36;63.57
79131;BME280;70394;45.194;9.142;2023-06-04T01:56:41;100619.91;;;21.36;63.40
79131;BME280;70394;45.194;9.142;2023-06-04T01:59:06;100625.63;;;21.31;63.92
79131;BME280;70394;45.194;9.142;2023-06-04T02:01:32;100620.53;;;21.28;63.53
79131;BME280;70394;45.194;9.142;2023-06-04T02:03:58;100626.88;;;21.27;63.65
79131;BME280;70394;45.194;9.142;2023-06-04T02:06:23;100632.09;;;21.28;63.84
79131;BME280;70394;45.194;9.142;2023-06-04T02:08:50;100622.75;;;21.23;64.13
79131;BME280;70394;45.194;9.142;2023-06-04T02:11:15;100626.38;;;21.22;64.00
79131;BME280;70394;45.194;9.142;2023-06-04T02:13:41;100634.31;;;21.23;64.38
79131;BME280;70394;45.194;9.142;2023-06-04T02:16:06;100646.97;;;21.21;64.42
79131;BME280;70394;45.194;9.142;2023-06-04T02:18:31;100652.34;;;21.21;64.10
79131;BME280;70394;45.194;9.142;2023-06-04T02:20:57;100649.66;;;21.21;64.38
79131;BME280;70394;45.194;9.142;2023-06-04T02:23:22;100650.63;;;21.20;64.67
79131;BME280;70394;45.194;9.142;2023-06-04T02:25:48;100651.88;;;21.16;64.90
79131;BME280;70394;45.194;9.142;2023-06-04T02:28:15;100645.53;;;21.17;64.51
79131;BME280;70394;45.194;9.142;2023-06-04T02:30:41;100648.81;;;21.09;64.80
79131;BME280;70394;45.194;9.142;2023-06-04T02:33:06;100637.47;;;21.06;65.10
79131;BME280;70394;45.194;9.142;2023-06-04T02:35:34;100644.53;;;21.07;65.09
79131;BME280;70394;45.194;9.142;2023-06-04T02:38:00;100649.41;;;21.13;64.94
79131;BME280;70394;45.194;9.142;2023-06-04T02:40:26;100642.59;;;21.09;65.68
79131;BME280;70394;45.194;9.142;2023-06-04T02:42:55;100639.91;;;21.09;65.88
79131;BME280;70394;45.194;9.142;2023-06-04T02:45:21;100644.28;;;21.10;66.09
79131;BME280;70394;45.194;9.142;2023-06-04T02:47:47;100648.69;;;21.11;65.50
79131;BME280;70394;45.194;9.142;2023-06-04T02:50:13;100654.06;;;20.99;64.95
79131;BME280;70394;45.194;9.142;2023-06-04T02:52:39;100651.47;;;20.98;65.46
79131;BME280;70394;45.194;9.142;2023-06-04T02:55:05;100659.53;;;20.98;64.99
79131;BME280;70394;45.194;9.142;2023-06-04T02:57:31;100664.66;;;20.90;65.37
79131;BME280;70394;45.194;9.142;2023-06-04T02:59:57;100658.19;;;21.04;64.95
79131;BME280;70394;45.194;9.142;2023-06-04T03:02:23;100663.31;;;21.07;65.16
79131;BME280;70394;45.194;9.142;2023-06-04T03:04:48;100668.03;;;20.80;66.05
79131;BME280;70394;45.194;9.142;2023-06-04T03:07:16;100675.84;;;20.95;66.10
79131;BME280;70394;45.194;9.142;2023-06-04T03:09:49;100667.56;;;20.98;65.78
79131;BME280;70394;45.194;9.142;2023-06-04T03:12:14;100678.28;;;20.98;66.24
79131;BME280;70394;45.194;9.142;2023-06-04T03:14:40;100682.78;;;20.86;65.85
79131;BME280;70394;45.194;9.142;2023-06-04T03:17:07;100689.47;;;20.80;65.84
79131;BME280;70394;45.194;9.142;2023-06-04T03:19:39;100691.06;;;20.83;65.89
79131;BME280;70394;45.194;9.142;2023-06-04T03:22:06;100685.88;;;20.68;66.09
79131;BME280;70394;45.194;9.142;2023-06-04T03:24:37;100687.34;;;20.72;66.42
79131;BME280;70394;45.194;9.142;2023-06-04T03:27:04;100683.06;;;20.58;66.52
79131;BME280;70394;45.194;9.142;2023-06-04T03:29:30;100686.47;;;20.61;66.55
79131;BME280;70394;45.194;9.142;2023-06-04T03:31:56;100676.59;;;20.61;66.46
79131;BME280;70394;45.194;9.142;2023-06-04T03:34:21;100683.78;;;20.72;67.03
79131;BME280;70394;45.194;9.142;2023-06-04T03:36:54;100687.09;;;20.76;67.14
79131;BME280;70394;45.194;9.142;2023-06-04T03:39:20;100696.47;;;20.70;66.71
79131;BME280;70394;45.194;9.142;2023-06-04T03:41:46;100701.81;;;20.70;66.34
79131;BME280;70394;45.194;9.142;2023-06-04T03:44:13;100711.78;;;20.56;66.22
79131;BME280;70394;45.194;9.142;2023-06-04T03:46:39;100699.97;;;20.59;66.07
79131;BME280;70394;45.194;9.142;2023-06-04T03:49:05;100708.81;;;20.48;66.53
79131;BME280;70394;45.194;9.142;2023-06-04T03:51:30;100708.72;;;20.50;66.37
79131;BME280;70394;45.194;9.142;2023-06-04T03:53:57;100710.69;;;20.59;66.62
79131;BME280;70394;45.194;9.142;2023-06-04T03:56:23;100717.00;;;20.58;66.63
79131;BME280;70394;45.194;9.142;2023-06-04T03:58:48;100706.25;;;20.47;66.76
79131;BME280;70394;45.194;9.142;2023-06-04T04:01:14;100718.09;;;20.31;67.39
79131;BME280;70394;45.194;9.142;2023-06-04T04:03:39;100714.91;;;20.01;68.51
79131;BME280;70394;45.194;9.142;2023-06-04T04:06:05;100712.38;;;20.24;67.77
79131;BME280;70394;45.194;9.142;2023-06-04T04:08:30;100717.03;;;20.09;68.61
79131;BME280;70394;45.194;9.142;2023-06-04T04:10:57;100709.50;;;20.14;68.14
79131;BME280;70394;45.194;9.142;2023-06-04T04:13:22;100719.13;;;20.41;67.67
79131;BME280;70394;45.194;9.142;2023-06-04T04:15:47;100717.19;;;20.43;67.89
79131;BME280;70394;45.194;9.142;2023-06-04T04:18:17;100715.41;;;20.20;68.36
79131;BME280;70394;45.194;9.142;2023-06-04T04:20:45;100719.31;;;20.27;68.24
79131;BME280;70394;45.194;9.142;2023-06-04T04:23:11;100719.09;;;20.30;68.24
79131;BME280;70394;45.194;9.142;2023-06-04T04:25:36;100718.16;;;20.42;68.05
79131;BME280;70394;45.194;9.142;2023-06-04T04:28:03;100720.78;;;20.31;67.89
79131;BME280;70394;45.194;9.142;2023-06-04T04:30:33;100718.56;;;20.25;68.28
79131;BME280;70394;45.194;9.142;2023-06-04T04:33:00;100715.97;;;20.36;67.84
79131;BME280;70394;45.194;9.142;2023-06-04T04:35:26;100721.31;;;20.36;67.92
79131;BME280;70394;45.194;9.142;2023-06-04T04:37:51;100725.47;;;20.40;67.90
79131;BME280;70394;45.194;9.142;2023-06-04T04:40:16;100710.53;;;20.49;67.70
79131;BME280;70394;45.194;9.142;2023-06-04T04:42:42;100729.84;;;20.41;67.73
79131;BME280;70394;45.194;9.142;2023-06-04T04:45:08;100728.19;;;20.52;67.56
79131;BME280;70394;45.194;9.142;2023-06-04T04:47:33;100723.97;;;20.61;67.78
79131;BME280;70394;45.194;9.142;2023-06-04T04:49:58;100721.34;;;20.48;67.40
79131;BME280;70394;45.194;9.142;2023-06-04T04:52:24;100720.66;;;20.57;67.86
79131;BME280;70394;45.194;9.142;2023-06-04T04:54:49;100726.53;;;20.62;67.44
79131;BME280;70394;45.194;9.142;2023-06-04T04:57:15;100715.06;;;20.60;67.50
79131;BME280;70394;45.194;9.142;2023-06-04T04:59:40;100712.16;;;20.63;67.25
79131;BME280;70394;45.194;9.142;2023-06-04T05:02:05;100715.06;;;20.60;67.25
79131;BME280;70394;45.194;9.142;2023-06-04T05:04:31;100709.25;;;20.66;67.13
79131;BME280;70394;45.194;9.142;2023-06-04T05:06:56;100710.69;;;20.59;67.58
79131;BME280;70394;45.194;9.142;2023-06-04T05:09:21;100721.09;;;20.75;67.36
79131;BME280;70394;45.194;9.142;2023-06-04T05:11:47;100725.97;;;20.45;68.33
79131;BME280;70394;45.194;9.142;2023-06-04T05:14:12;100728.59;;;20.58;68.00
79131;BME280;70394;45.194;9.142;2023-06-04T05:16:38;100718.19;;;20.78;67.73
79131;BME280;70394;45.194;9.142;2023-06-04T05:19:06;100724.56;;;20.89;67.51
79131;BME280;70394;45.194;9.142;2023-06-04T05:21:31;100722.91;;;20.75;67.79
79131;BME280;70394;45.194;9.142;2023-06-04T05:23:56;100730.81;;;21.00;67.20
79131;BME280;70394;45.194;9.142;2023-06-04T05:26:22;100727.13;;;20.90;66.76
79131;BME280;70394;45.194;9.142;2023-06-04T05:28:49;100726.66;;;20.96;66.86
79131;BME280;70394;45.194;9.142;2023-06-04T05:31:14;100726.66;;;20.96;66.53
79131;BME280;70394;45.194;9.142;2023-06-04T05:33:41;100734.22;;;21.03;66.44
79131;BME280;70394;45.194;9.142;2023-06-04T05:36:06;100733.38;;;20.78;68.48
79131;BME280;70394;45.194;9.142;2023-06-04T05:38:32;100724.06;;;20.83;67.58
79131;BME280;70394;45.194;9.142;2023-06-04T05:40:58;100731.75;;;20.88;66.25
79131;BME280;70394;45.194;9.142;2023-06-04T05:43:23;100723.22;;;20.94;66.89
79131;BME280;70394;45.194;9.142;2023-06-04T05:45:49;100724.19;;;20.82;66.42
79131;BME280;70394;45.194;9.142;2023-06-04T05:48:16;100724.44;;;20.90;66.45
79131;BME280;70394;45.194;9.142;2023-06-04T05:50:42;100720.59;;;21.06;65.73
79131;BME280;70394;45.194;9.142;2023-06-04T05:53:07;100710.84;;;21.05;65.56
79131;BME280;70394;45.194;9.142;2023-06-04T05:55:32;100706.94;;;21.09;65.37
79131;BME280;70394;45.194;9.142;2023-06-04T05:57:58;100726.34;;;21.24;65.36
79131;BME280;70394;45.194;9.142;2023-06-04T06:00:23;100724.53;;;21.36;64.96
79131;BME280;70394;45.194;9.142;2023-06-04T06:02:50;100718.91;;;21.39;64.57
79131;BME280;70394;45.194;9.142;2023-06-04T06:05:16;100727.94;;;21.38;64.36
79131;BME280;70394;45.194;9.142;2023-06-04T06:07:41;100732.44;;;21.37;64.13
79131;BME280;70394;45.194;9.142;2023-06-04T06:10:07;100722.06;;;21.21;64.65
79131;BME280;70394;45.194;9.142;2023-06-04T06:12:34;100736.56;;;21.19;64.27
79131;BME280;70394;45.194;9.142;2023-06-04T06:15:00;100732.06;;;21.30;64.56
79131;BME280;70394;45.194;9.142;2023-06-04T06:17:25;100736.47;;;21.43;64.38
79131;BME280;70394;45.194;9.142;2023-06-04T06:19:52;100733.19;;;21.39;64.08
79131;BME280;70394;45.194;9.142;2023-06-04T06:22:17;100737.91;;;21.47;64.32
79131;BME280;70394;45.194;9.142;2023-06-04T06:24:43;100724.03;;;21.42;64.16
79131;BME280;70394;45.194;9.142;2023-06-04T06:27:09;100745.47;;;21.42;64.13
79131;BME280;70394;45.194;9.142;2023-06-04T06:29:35;100744.03;;;21.49;64.23
79131;BME280;70394;45.194;9.142;2023-06-04T06:32:02;100751.59;;;21.55;63.81
79131;BME280;70394;45.194;9.142;2023-06-04T06:34:27;100761.72;;;21.63;63.59
79131;BME280;70394;45.194;9.142;2023-06-04T06:36:53;100760.66;;;21.66;63.53
79131;BME280;70394;45.194;9.142;2023-06-04T06:39:18;100761.13;;;21.71;63.22
79131;BME280;70394;45.194;9.142;2023-06-04T06:41:45;100752.22;;;21.70;63.11
79131;BME280;70394;45.194;9.142;2023-06-04T06:44:11;100761.34;;;21.79;62.91
79131;BME280;70394;45.194;9.142;2023-06-04T06:46:36;100766.97;;;21.88;62.73
79131;BME280;70394;45.194;9.142;2023-06-04T06:49:01;100771.13;;;21.92;62.69
79131;BME280;70394;45.194;9.142;2023-06-04T06:51:27;100768.44;;;21.92;62.48
79131;BME280;70394;45.194;9.142;2023-06-04T06:53:52;100776.34;;;22.05;62.54
79131;BME280;70394;45.194;9.142;2023-06-04T06:56:17;100767.78;;;22.11;61.89
79131;BME280;70394;45.194;9.142;2023-06-04T06:58:44;100781.00;;;21.91;61.97
79131;BME280;70394;45.194;9.142;2023-06-04T07:01:09;100790.53;;;21.73;61.98
79131;BME280;70394;45.194;9.142;2023-06-04T07:03:35;100789.31;;;21.65;62.31
79131;BME280;70394;45.194;9.142;2023-06-04T07:06:00;100788.59;;;21.75;62.15
79131;BME280;70394;45.194;9.142;2023-06-04T07:08:28;100784.53;;;21.80;62.09
79131;BME280;70394;45.194;9.142;2023-06-04T07:10:55;100778.81;;;21.85;61.71
79131;BME280;70394;45.194;9.142;2023-06-04T07:13:20;100783.09;;;21.88;61.51
79131;BME280;70394;45.194;9.142;2023-06-04T07:15:46;100778.44;;;21.78;61.40
79131;BME280;70394;45.194;9.142;2023-06-04T07:18:11;100789.06;;;21.91;61.25
79131;BME280;70394;45.194;9.142;2023-06-04T07:20:37;100779.19;;;21.69;61.43
79131;BME280;70394;45.194;9.142;2023-06-04T07:23:02;100778.47;;;21.67;60.77
79131;BME280;70394;45.194;9.142;2023-06-04T07:25:28;100780.75;;;21.71;60.82
79131;BME280;70394;45.194;9.142;2023-06-04T07:27:53;100779.66;;;21.85;60.87
79131;BME280;70394;45.194;9.142;2023-06-04T07:30:23;100780.88;;;21.93;60.85
79131;BME280;70394;45.194;9.142;2023-06-04T07:32:49;100794.19;;;21.94;60.33
79131;BME280;70394;45.194;9.142;2023-06-04T07:35:15;100794.91;;;21.85;59.90
79131;BME280;70394;45.194;9.142;2023-06-04T07:37:40;100790.53;;;21.95;60.16
79131;BME280;70394;45.194;9.142;2023-06-04T07:40:07;100766.22;;;21.97;60.04
79131;BME280;70394;45.194;9.142;2023-06-04T07:42:32;100775.97;;;22.09;59.90
79131;BME280;70394;45.194;9.142;2023-06-04T07:44:58;100783.28;;;22.07;59.91
79131;BME280;70394;45.194;9.142;2023-06-04T07:47:24;100784.91;;;21.98;59.82
79131;BME280;70394;45.194;9.142;2023-06-04T07:49:49;100783.56;;;22.04;59.94
79131;BME280;70394;45.194;9.142;2023-06-04T07:52:15;100787.66;;;22.20;60.23
79131;BME280;70394;45.194;9.142;2023-06-04T07:54:41;100798.16;;;22.34;59.81
79131;BME280;70394;45.194;9.142;2023-06-04T07:57:07;100792.19;;;22.19;59.21
79131;BME280;70394;45.194;9.142;2023-06-04T07:59:32;100784.75;;;22.11;59.53
79131;BME280;70394;45.194;9.142;2023-06-04T08:01:58;100784.75;;;22.11;59.49
79131;BME280;70394;45.194;9.142;2023-06-04T08:04:23;100785.97;;;22.19;59.53
79131;BME280;70394;45.194;9.142;2023-06-04T08:06:48;100781.03;;;22.35;59.01
79131;BME280;70394;45.194;9.142;2023-06-04T08:09:15;100797.66;;;22.29;59.29
79131;BME280;70394;45.194;9.142;2023-06-04T08:11:41;100794.41;;;22.47;59.54
79131;BME280;70394;45.194;9.142;2023-06-04T08:14:13;100785.19;;;22.39;59.10
79131;BME280;70394;45.194;9.142;2023-06-04T08:16:39;100808.63;;;22.49;59.46
79131;BME280;70394;45.194;9.142;2023-06-04T08:19:05;100794.69;;;22.43;59.20
79131;BME280;70394;45.194;9.142;2023-06-04T08:21:32;100807.03;;;22.46;58.82
79131;BME280;70394;45.194;9.142;2023-06-04T08:23:58;100804.44;;;22.56;58.91
79131;BME280;70394;45.194;9.142;2023-06-04T08:26:24;100811.78;;;22.54;58.57
79131;BME280;70394;45.194;9.142;2023-06-04T08:28:52;100799.53;;;22.61;58.44
79131;BME280;70394;45.194;9.142;2023-06-04T08:31:18;100792.97;;;22.42;58.20
79131;BME280;70394;45.194;9.142;2023-06-04T08:33:46;100792.00;;;22.55;58.74
79131;BME280;70394;45.194;9.142;2023-06-04T08:36:12;100815.25;;;22.77;58.54
79131;BME280;70394;45.194;9.142;2023-06-04T08:38:38;100801.81;;;22.77;58.08
79131;BME280;70394;45.194;9.142;2023-06-04T08:41:13;100793.88;;;22.76;58.20
79131;BME280;70394;45.194;9.142;2023-06-04T08:43:40;100801.88;;;22.87;58.40
79131;BME280;70394;45.194;9.142;2023-06-04T08:46:09;100810.66;;;22.89;58.02
79131;BME280;70394;45.194;9.142;2023-06-04T08:48:35;100806.34;;;22.98;57.76
79131;BME280;70394;45.194;9.142;2023-06-04T08:51:05;100811.94;;;23.06;57.54
79131;BME280;70394;45.194;9.142;2023-06-04T08:53:31;100804.25;;;23.02;57.14
79131;BME280;70394;45.194;9.142;2023-06-04T08:55:56;100793.13;;;23.06;57.43
79131;BME280;70394;45.194;9.142;2023-06-04T08:58:22;100810.88;;;23.19;57.55
79131;BME280;70394;45.194;9.142;2023-06-04T09:00:48;100804.38;;;23.00;56.76
79131;BME280;70394;45.194;9.142;2023-06-04T09:03:15;100810.47;;;23.02;57.28
79131;BME280;70394;45.194;9.142;2023-06-04T09:05:42;100800.91;;;22.88;56.98
79131;BME280;70394;45.194;9.142;2023-06-04T09:08:13;100801.97;;;22.97;57.31
79131;BME280;70394;45.194;9.142;2023-06-04T09:10:40;100810.25;;;23.05;57.35
79131;BME280;70394;45.194;9.142;2023-06-04T09:13:06;100803.53;;;22.99;57.24
79131;BME280;70394;45.194;9.142;2023-06-04T09:15:33;100807.34;;;22.97;57.38
79131;BME280;70394;45.194;9.142;2023-06-04T09:17:58;100800.22;;;23.07;57.06
79131;BME280;70394;45.194;9.142;2023-06-04T09:20:24;100803.69;;;23.19;56.83
79131;BME280;70394;45.194;9.142;2023-06-04T09:22:49;100805.66;;;23.17;57.09
79131;BME280;70394;45.194;9.142;2023-06-04T09:25:24;100815.50;;;23.28;57.07
79131;BME280;70394;45.194;9.142;2023-06-04T09:27:51;100814.88;;;23.24;56.58
79131;BME280;70394;45.194;9.142;2023-06-04T09:30:20;100806.88;;;23.13;56.29
79131;BME280;70394;45.194;9.142;2023-06-04T09:32:46;100811.53;;;23.11;56.57
79131;BME280;70394;45.194;9.142;2023-06-04T09:37:40;100801.81;;;23.20;56.06
79131;BME280;70394;45.194;9.142;2023-06-04T09:40:06;100798.81;;;23.34;55.98
79131;BME280;70394;45.194;9.142;2023-06-04T09:42:45;100799.28;;;23.18;56.02
79131;BME280;70394;45.194;9.142;2023-06-04T09:45:11;100792.13;;;23.28;56.13
79131;BME280;70394;45.194;9.142;2023-06-04T09:47:43;100805.25;;;23.43;56.13
79131;BME280;70394;45.194;9.142;2023-06-04T09:50:12;100800.34;;;23.48;56.02
79131;BME280;70394;45.194;9.142;2023-06-04T09:52:38;100799.59;;;23.46;56.51
79131;BME280;70394;45.194;9.142;2023-06-04T09:55:18;100803.78;;;23.60;55.91
79131;BME280;70394;45.194;9.142;2023-06-04T09:57:50;100800.81;;;23.63;55.41
79131;BME280;70394;45.194;9.142;2023-06-04T10:00:20;100797.75;;;23.68;54.83
79131;BME280;70394;45.194;9.142;2023-06-04T10:02:46;100793.88;;;23.61;54.76
79131;BME280;70394;45.194;9.142;2023-06-04T10:05:13;100786.25;;;23.66;54.75
79131;BME280;70394;45.194;9.142;2023-06-04T10:07:42;100788.66;;;23.69;55.33
79131;BME280;70394;45.194;9.142;2023-06-04T10:10:16;100793.03;;;23.60;55.61
79131;BME280;70394;45.194;9.142;2023-06-04T10:12:43;100786.22;;;23.56;55.51
79131;BME280;70394;45.194;9.142;2023-06-04T10:15:12;100786.72;;;23.50;54.79
79131;BME280;70394;45.194;9.142;2023-06-04T10:17:38;100789.03;;;23.54;55.54
79131;BME280;70394;45.194;9.142;2023-06-04T10:20:05;100775.75;;;23.63;55.05
79131;BME280;70394;45.194;9.142;2023-06-04T10:22:33;100781.72;;;23.66;54.83
79131;BME280;70394;45.194;9.142;2023-06-04T10:24:59;100777.22;;;23.77;54.67
79131;BME280;70394;45.194;9.142;2023-06-04T10:27:25;100782.34;;;23.80;55.16
79131;BME280;70394;45.194;9.142;2023-06-04T10:29:51;100789.81;;;23.76;54.51
79131;BME280;70394;45.194;9.142;2023-06-04T10:32:17;100780.50;;;23.80;55.01
79131;BME280;70394;45.194;9.142;2023-06-04T10:34:43;100778.19;;;23.66;54.28
79131;BME280;70394;45.194;9.142;2023-06-04T10:37:22;100786.56;;;23.73;54.63
79131;BME280;70394;45.194;9.142;2023-06-04T10:39:55;100776.34;;;23.76;54.25
79131;BME280;70394;45.194;9.142;2023-06-04T10:42:22;100787.84;;;23.78;53.89
79131;BME280;70394;45.194;9.142;2023-06-04T10:44:50;100776.88;;;23.60;53.88
79131;BME280;70394;45.194;9.142;2023-06-04T10:47:26;100791.69;;;23.76;53.76
79131;BME280;70394;45.194;9.142;2023-06-04T10:49:53;100784.72;;;23.73;53.42
79131;BME280;70394;45.194;9.142;2023-06-04T10:52:18;100788.66;;;23.69;53.94
79131;BME280;70394;45.194;9.142;2023-06-04T10:54:45;100790.19;;;23.62;54.50
79131;BME280;70394;45.194;9.142;2023-06-04T10:57:15;100776.06;;;23.69;54.52
79131;BME280;70394;45.194;9.142;2023-06-04T10:59:52;100775.81;;;23.73;53.89
79131;BME280;70394;45.194;9.142;2023-06-04T11:02:18;100784.81;;;23.62;55.18
79131;BME280;70394;45.194;9.142;2023-06-04T11:04:44;100779.59;;;23.39;55.55
79131;BME280;70394;45.194;9.142;2023-06-04T11:07:09;100781.94;;;23.53;55.42
79131;BME280;70394;45.194;9.142;2023-06-04T11:09:36;100778.16;;;23.56;55.59
79131;BME280;70394;45.194;9.142;2023-06-04T11:12:04;100773.78;;;23.65;55.43
79131;BME280;70394;45.194;9.142;2023-06-04T11:14:30;100769.91;;;23.58;55.04
79131;BME280;70394;45.194;9.142;2023-06-04T11:16:55;100772.38;;;23.70;55.06
79131;BME280;70394;45.194;9.142;2023-06-04T11:19:21;100770.50;;;23.61;55.14
79131;BME280;70394;45.194;9.142;2023-06-04T11:21:47;100772.78;;;23.66;54.81
79131;BME280;70394;45.194;9.142;2023-06-04T11:24:13;100768.84;;;23.70;55.23
79131;BME280;70394;45.194;9.142;2023-06-04T11:26:38;100772.25;;;23.72;54.12
79131;BME280;70394;45.194;9.142;2023-06-04T11:29:11;100755.50;;;23.68;54.23
79131;BME280;70394;45.194;9.142;2023-06-04T11:31:47;100762.91;;;23.76;54.69
79131;BME280;70394;45.194;9.142;2023-06-04T11:36:48;100756.72;;;23.95;55.67
79131;BME280;70394;45.194;9.142;2023-06-04T11:39:14;100755.94;;;24.05;56.08
79131;BME280;70394;45.194;9.142;2023-06-04T11:41:40;100767.31;;;23.87;55.68
79131;BME280;70394;45.194;9.142;2023-06-04T11:44:08;100758.34;;;23.67;56.28
79131;BME280;70394;45.194;9.142;2023-06-04T11:46:34;100752.09;;;23.35;56.79
79131;BME280;70394;45.194;9.142;2023-06-04T11:49:01;100745.28;;;23.31;56.92
79131;BME280;70394;45.194;9.142;2023-06-04T11:51:27;100751.56;;;23.20;57.35
79131;BME280;70394;45.194;9.142;2023-06-04T11:53:53;100752.91;;;23.47;57.04
79131;BME280;70394;45.194;9.142;2023-06-04T11:56:18;100752.03;;;23.25;56.49
79131;BME280;70394;45.194;9.142;2023-06-04T11:58:44;100750.88;;;23.18;56.62
79131;BME280;70394;45.194;9.142;2023-06-04T12:01:12;100736.63;;;23.27;58.06
79131;BME280;70394;45.194;9.142;2023-06-04T12:03:40;100732.59;;;23.43;59.02
79131;BME280;70394;45.194;9.142;2023-06-04T12:06:23;100738.25;;;23.40;60.80
79131;BME280;70394;45.194;9.142;2023-06-04T12:08:54;100728.88;;;23.34;59.66
79131;BME280;70394;45.194;9.142;2023-06-04T12:11:26;100740.09;;;23.18;60.62
79131;BME280;70394;45.194;9.142;2023-06-04T12:13:57;100742.63;;;23.20;61.40
79131;BME280;70394;45.194;9.142;2023-06-04T12:16:23;100745.69;;;23.26;60.48
79131;BME280;70394;45.194;9.142;2023-06-04T12:18:48;100742.25;;;23.24;60.76
79131;BME280;70394;45.194;9.142;2023-06-04T12:21:23;100749.88;;;23.19;61.58
79131;BME280;70394;45.194;9.142;2023-06-04T12:24:18;100745.75;;;23.15;61.45
79131;BME280;70394;45.194;9.142;2023-06-04T12:26:43;100745.94;;;23.23;62.74
79131;BME280;70394;45.194;9.142;2023-06-04T12:29:13;100745.69;;;23.26;63.29
79131;BME280;70394;45.194;9.142;2023-06-04T12:31:40;100743.25;;;23.23;63.85
79131;BME280;70394;45.194;9.142;2023-06-04T12:34:06;100748.88;;;23.20;65.68
79131;BME280;70394;45.194;9.142;2023-06-04T12:36:32;100749.88;;;23.19;66.83
79131;BME280;70394;45.194;9.142;2023-06-04T12:39:01;100739.84;;;23.21;68.10
79131;BME280;70394;45.194;9.142;2023-06-04T12:41:28;100736.44;;;23.19;68.93
79131;BME280;70394;45.194;9.142;2023-06-04T12:43:54;100728.75;;;23.36;67.19
79131;BME280;70394;45.194;9.142;2023-06-04T12:46:20;100730.50;;;23.25;67.61
79131;BME280;70394;45.194;9.142;2023-06-04T12:48:45;100705.13;;;23.18;68.18
79131;BME280;70394;45.194;9.142;2023-06-04T12:51:11;100725.88;;;23.27;68.50
79131;BME280;70394;45.194;9.142;2023-06-04T12:53:40;100708.16;;;23.25;68.52
79131;BME280;70394;45.194;9.142;2023-06-04T12:56:06;100709.97;;;23.24;69.55
79131;BME280;70394;45.194;9.142;2023-06-04T12:58:32;100709.72;;;23.27;66.78
79131;BME280;70394;45.194;9.142;2023-06-04T13:00:57;100706.91;;;23.29;68.45